sensor_id;sensor_type;location;lat;lon;timestamp;pressure;altitude;pressure_sealevel;temperature;humidity
47742;BME280;33504;52.066;6.096;2023-12-22T00:00:25;99972.96;;;6.92;51.39
47742;BME280;33504;52.066;6.096;2023-12-22T00:02:52;99987.08;;;7.51;50.76
47742;BME280;33504;52.066;6.096;2023-12-22T00:05:19;99997.18;;;7.39;50.90
47742;BME280;33504;52.066;6.096;2023-12-22T00:07:47;99997.12;;;6.85;51.06
47742;BME280;33504;52.066;6.096;2023-12-22T00:10:14;99994.09;;;7.21;50.91
47742;BME280;33504;52.066;6.096;2023-12-22T00:12:41;100002.80;;;7.23;50.75
47742;BME280;33504;52.066;6.096;2023-12-22T00:15:08;100001.99;;;7.00;50.64
47742;BME280;33504;52.066;6.096;2023-12-22T00:17:35;100002.28;;;6.93;50.20
47742;BME280;33504;52.066;6.096;2023-12-22T00:20:02;100013.91;;;7.25;50.13
47742;BME280;33504;52.066;6.096;2023-12-22T00:22:29;100011.04;;;6.93;50.51
47742;BME280;33504;52.066;6.096;2023-12-22T00:24:56;100014.32;;;7.14;49.76
47742;BME280;33504;52.066;6.096;2023-12-22T00:27:23;100026.89;;;7.02;50.50
47742;BME280;33504;52.066;6.096;2023-12-22T00:29:50;100020.06;;;7.06;50.21
47742;BME280;33504;52.066;6.096;2023-12-22T00:32:17;100018.82;;;7.33;49.78
47742;BME280;33504;52.066;6.096;2023-12-22T00:34:44;100037.85;;;7.13;50.00
47742;BME280;33504;52.066;6.096;2023-12-22T00:37:11;100039.82;;;7.28;50.01
47742;BME280;33504;52.066;6.096;2023-12-22T00:39:38;100037.62;;;7.36;49.70
47742;BME280;33504;52.066;6.096;2023-12-22T00:42:05;100033.76;;;7.32;49.32
47742;BME280;33504;52.066;6.096;2023-12-22T00:44:32;100041.22;;;7.38;49.39
47742;BME280;33504;52.066;6.096;2023-12-22T00:46:59;100044.26;;;7.39;49.37
47742;BME280;33504;52.066;6.096;2023-12-22T00:49:26;100032.76;;;7.23;49.15
47742;BME280;33504;52.066;6.096;2023-12-22T00:51:53;100030.66;;;7.76;48.76
47742;BME280;33504;52.066;6.096;2023-12-22T00:54:21;100043.67;;;7.58;48.66
47742;BME280;33504;52.066;6.096;2023-12-22T00:56:48;100050.10;;;7.64;48.62
47742;BME280;33504;52.066;6.096;2023-12-22T00:59:14;100051.38;;;7.65;48.61
47742;BME280;33504;52.066;6.096;2023-12-22T01:01:41;100042.80;;;7.67;48.30
47742;BME280;33504;52.066;6.096;2023-12-22T01:04:08;100040.47;;;7.21;48.53
47742;BME280;33504;52.066;6.096;2023-12-22T01:06:37;100043.38;;;7.27;48.42
47742;BME280;33504;52.066;6.096;2023-12-22T01:09:04;100049.07;;;7.45;48.83
47742;BME280;33504;52.066;6.096;2023-12-22T01:11:31;100042.24;;;7.44;48.47
47742;BME280;33504;52.066;6.096;2023-12-22T01:13:58;100047.71;;;7.38;49.17
47742;BME280;33504;52.066;6.096;2023-12-22T01:16:25;100049.61;;;7.32;48.61
47742;BME280;33504;52.066;6.096;2023-12-22T01:18:52;100047.72;;;7.10;49.08
47742;BME280;33504;52.066;6.096;2023-12-22T01:21:19;100048.73;;;7.03;49.47
47742;BME280;33504;52.066;6.096;2023-12-22T01:23:46;100046.06;;;7.21;49.74
47742;BME280;33504;52.066;6.096;2023-12-22T01:26:12;100049.49;;;6.29;50.58
47742;BME280;33504;52.066;6.096;2023-12-22T01:28:40;100059.87;;;6.80;50.48
47742;BME280;33504;52.066;6.096;2023-12-22T01:31:07;100061.36;;;6.71;50.63
47742;BME280;33504;52.066;6.096;2023-12-22T01:33:34;100064.83;;;6.84;50.36
47742;BME280;33504;52.066;6.096;2023-12-22T01:36:01;100063.52;;;6.67;50.49
47742;BME280;33504;52.066;6.096;2023-12-22T01:38:28;100062.19;;;7.30;49.98
47742;BME280;33504;52.066;6.096;2023-12-22T01:40:55;100077.63;;;6.29;50.76
47742;BME280;33504;52.066;6.096;2023-12-22T01:43:22;100093.54;;;6.84;50.38
47742;BME280;33504;52.066;6.096;2023-12-22T01:45:49;100092.46;;;7.07;49.86
47742;BME280;33504;52.066;6.096;2023-12-22T01:48:18;100082.63;;;6.90;49.72
47742;BME280;33504;52.066;6.096;2023-12-22T01:50:45;100084.40;;;6.50;49.47
47742;BME280;33504;52.066;6.096;2023-12-22T01:53:13;100068.94;;;6.84;48.30
47742;BME280;33504;52.066;6.096;2023-12-22T01:55:41;100084.18;;;7.12;48.55
47742;BME280;33504;52.066;6.096;2023-12-22T01:58:08;100089.40;;;6.86;48.47
47742;BME280;33504;52.066;6.096;2023-12-22T02:00:36;100092.07;;;6.89;48.60
47742;BME280;33504;52.066;6.096;2023-12-22T02:03:04;100078.98;;;7.26;48.43
47742;BME280;33504;52.066;6.096;2023-12-22T02:05:31;100088.24;;;7.26;47.88
47742;BME280;33504;52.066;6.096;2023-12-22T02:07:59;100092.27;;;7.22;47.92
47742;BME280;33504;52.066;6.096;2023-12-22T02:10:25;100087.52;;;7.11;48.27
47742;BME280;33504;52.066;6.096;2023-12-22T02:12:52;100088.48;;;6.75;48.34
47742;BME280;33504;52.066;6.096;2023-12-22T02:15:20;100102.76;;;6.84;49.13
47742;BME280;33504;52.066;6.096;2023-12-22T02:17:51;100106.18;;;6.70;48.99
47742;BME280;33504;52.066;6.096;2023-12-22T02:20:21;100101.09;;;6.87;48.96
47742;BME280;33504;52.066;6.096;2023-12-22T02:22:51;100111.15;;;6.72;49.95
47742;BME280;33504;52.066;6.096;2023-12-22T02:25:18;100103.86;;;7.05;49.63
47742;BME280;33504;52.066;6.096;2023-12-22T02:27:48;100104.33;;;6.96;49.90
47742;BME280;33504;52.066;6.096;2023-12-22T02:30:32;100095.63;;;6.97;50.20
47742;BME280;33504;52.066;6.096;2023-12-22T02:33:01;100090.72;;;7.04;50.27
47742;BME280;33504;52.066;6.096;2023-12-22T02:35:32;100071.26;;;7.03;50.18
47742;BME280;33504;52.066;6.096;2023-12-22T02:38:02;100071.59;;;6.86;50.22
47742;BME280;33504;52.066;6.096;2023-12-22T02:40:30;100103.84;;;6.74;50.70
47742;BME280;33504;52.066;6.096;2023-12-22T02:42:58;100107.38;;;6.96;50.46
47742;BME280;33504;52.066;6.096;2023-12-22T02:45:25;100099.08;;;7.35;49.81
47742;BME280;33504;52.066;6.096;2023-12-22T02:47:52;100093.58;;;7.12;49.73
47742;BME280;33504;52.066;6.096;2023-12-22T02:50:19;100078.49;;;7.30;50.10
47742;BME280;33504;52.066;6.096;2023-12-22T02:52:47;100070.63;;;7.34;50.11
47742;BME280;33504;52.066;6.096;2023-12-22T02:55:15;100071.08;;;7.69;49.73
47742;BME280;33504;52.066;6.096;2023-12-22T02:57:41;100073.39;;;7.86;49.48
47742;BME280;33504;52.066;6.096;2023-12-22T03:00:10;100084.27;;;7.75;49.74
47742;BME280;33504;52.066;6.096;2023-12-22T03:02:36;100078.51;;;8.00;50.07
47742;BME280;33504;52.066;6.096;2023-12-22T03:05:04;100128.91;;;7.55;50.88
47742;BME280;33504;52.066;6.096;2023-12-22T03:07:31;100146.14;;;7.65;51.45
47742;BME280;33504;52.066;6.096;2023-12-22T03:09:59;100143.09;;;7.26;52.13
47742;BME280;33504;52.066;6.096;2023-12-22T03:12:25;100140.91;;;6.57;52.64
47742;BME280;33504;52.066;6.096;2023-12-22T03:14:52;100135.98;;;6.45;52.36
47742;BME280;33504;52.066;6.096;2023-12-22T03:17:19;100117.18;;;6.82;51.56
47742;BME280;33504;52.066;6.096;2023-12-22T03:19:46;100105.55;;;6.24;52.54
47742;BME280;33504;52.066;6.096;2023-12-22T03:22:14;100120.47;;;6.40;52.29
47742;BME280;33504;52.066;6.096;2023-12-22T03:24:40;100118.71;;;6.49;52.52
47742;BME280;33504;52.066;6.096;2023-12-22T03:27:07;100140.33;;;6.46;52.55
47742;BME280;33504;52.066;6.096;2023-12-22T03:29:34;100147.11;;;6.03;53.06
47742;BME280;33504;52.066;6.096;2023-12-22T03:32:01;100156.41;;;6.05;53.27
47742;BME280;33504;52.066;6.096;2023-12-22T03:34:28;100145.87;;;5.56;54.12
47742;BME280;33504;52.066;6.096;2023-12-22T03:36:56;100119.16;;;5.58;54.16
47742;BME280;33504;52.066;6.096;2023-12-22T03:39:23;100146.46;;;5.85;53.80
47742;BME280;33504;52.066;6.096;2023-12-22T03:41:50;100135.22;;;5.94;53.64
47742;BME280;33504;52.066;6.096;2023-12-22T03:44:17;100129.03;;;5.85;53.90
47742;BME280;33504;52.066;6.096;2023-12-22T03:46:44;100145.02;;;6.39;53.64
47742;BME280;33504;52.066;6.096;2023-12-22T03:49:10;100124.67;;;5.86;53.97
47742;BME280;33504;52.066;6.096;2023-12-22T03:51:37;100130.10;;;5.93;53.98
47742;BME280;33504;52.066;6.096;2023-12-22T03:54:04;100129.67;;;6.00;53.94
47742;BME280;33504;52.066;6.096;2023-12-22T03:56:31;100129.01;;;5.94;53.97
47742;BME280;33504;52.066;6.096;2023-12-22T03:58:58;100138.70;;;6.19;53.75
47742;BME280;33504;52.066;6.096;2023-12-22T04:01:25;100142.35;;;5.74;54.61
47742;BME280;33504;52.066;6.096;2023-12-22T04:03:52;100121.38;;;6.06;54.06
47742;BME280;33504;52.066;6.096;2023-12-22T04:06:19;100129.06;;;5.88;53.99
47742;BME280;33504;52.066;6.096;2023-12-22T04:08:46;100130.47;;;5.91;53.86
47742;BME280;33504;52.066;6.096;2023-12-22T04:11:12;100122.95;;;6.00;53.71
47742;BME280;33504;52.066;6.096;2023-12-22T04:13:39;100123.64;;;6.11;53.60
47742;BME280;33504;52.066;6.096;2023-12-22T04:16:06;100137.69;;;6.00;53.76
47742;BME280;33504;52.066;6.096;2023-12-22T04:18:33;100137.56;;;5.85;53.82
47742;BME280;33504;52.066;6.096;2023-12-22T04:21:00;100132.51;;;5.93;53.91
47742;BME280;33504;52.066;6.096;2023-12-22T04:23:27;100136.06;;;5.81;54.20
47742;BME280;33504;52.066;6.096;2023-12-22T04:25:54;100134.39;;;5.81;54.19
47742;BME280;33504;52.066;6.096;2023-12-22T04:28:21;100131.77;;;5.51;54.24
47742;BME280;33504;52.066;6.096;2023-12-22T04:30:48;100120.16;;;5.69;54.11
47742;BME280;33504;52.066;6.096;2023-12-22T04:33:15;100132.11;;;5.89;53.58
47742;BME280;33504;52.066;6.096;2023-12-22T04:35:42;100132.73;;;6.09;53.15
47742;BME280;33504;52.066;6.096;2023-12-22T04:38:09;100125.50;;;6.19;53.02
47742;BME280;33504;52.066;6.096;2023-12-22T04:40:36;100125.55;;;6.15;52.73
47742;BME280;33504;52.066;6.096;2023-12-22T04:43:03;100127.12;;;5.91;53.44
47742;BME280;33504;52.066;6.096;2023-12-22T04:45:30;100126.91;;;5.96;53.46
47742;BME280;33504;52.066;6.096;2023-12-22T04:47:57;100127.03;;;6.19;53.15
47742;BME280;33504;52.066;6.096;2023-12-22T04:50:24;100126.57;;;6.18;53.37
47742;BME280;33504;52.066;6.096;2023-12-22T04:52:51;100134.17;;;6.31;53.43
47742;BME280;33504;52.066;6.096;2023-12-22T04:55:18;100144.18;;;6.13;53.97
47742;BME280;33504;52.066;6.096;2023-12-22T04:57:45;100161.81;;;6.31;53.74
47742;BME280;33504;52.066;6.096;2023-12-22T05:00:13;100176.82;;;6.27;53.95
47742;BME280;33504;52.066;6.096;2023-12-22T05:02:41;100177.88;;;6.49;53.88
47742;BME280;33504;52.066;6.096;2023-12-22T05:05:08;100158.26;;;5.99;54.20
47742;BME280;33504;52.066;6.096;2023-12-22T05:07:35;100154.28;;;5.97;54.14
47742;BME280;33504;52.066;6.096;2023-12-22T05:10:03;100150.78;;;6.42;53.88
47742;BME280;33504;52.066;6.096;2023-12-22T05:12:30;100164.00;;;6.45;53.65
47742;BME280;33504;52.066;6.096;2023-12-22T05:14:57;100167.76;;;6.08;54.56
47742;BME280;33504;52.066;6.096;2023-12-22T05:17:24;100169.94;;;6.53;54.10
47742;BME280;33504;52.066;6.096;2023-12-22T05:19:52;100161.99;;;6.47;53.78
47742;BME280;33504;52.066;6.096;2023-12-22T05:22:19;100158.96;;;6.45;53.95
47742;BME280;33504;52.066;6.096;2023-12-22T05:24:46;100167.90;;;6.70;53.68
47742;BME280;33504;52.066;6.096;2023-12-22T05:27:13;100168.31;;;6.94;53.47
47742;BME280;33504;52.066;6.096;2023-12-22T05:29:40;100173.58;;;7.15;53.52
47742;BME280;33504;52.066;6.096;2023-12-22T05:32:07;100168.10;;;7.04;53.30
47742;BME280;33504;52.066;6.096;2023-12-22T05:34:34;100166.52;;;7.00;53.43
47742;BME280;33504;52.066;6.096;2023-12-22T05:37:01;100159.08;;;6.90;53.14
47742;BME280;33504;52.066;6.096;2023-12-22T05:39:28;100154.17;;;6.84;53.84
47742;BME280;33504;52.066;6.096;2023-12-22T05:41:55;100153.22;;;6.66;53.78
47742;BME280;33504;52.066;6.096;2023-12-22T05:44:22;100158.80;;;6.75;53.56
47742;BME280;33504;52.066;6.096;2023-12-22T05:46:49;100159.24;;;6.71;54.26
47742;BME280;33504;52.066;6.096;2023-12-22T05:49:16;100160.02;;;6.82;53.68
47742;BME280;33504;52.066;6.096;2023-12-22T05:51:43;100152.91;;;7.21;53.82
47742;BME280;33504;52.066;6.096;2023-12-22T05:54:11;100154.29;;;6.86;53.65
47742;BME280;33504;52.066;6.096;2023-12-22T05:56:38;100165.84;;;7.26;54.19
47742;BME280;33504;52.066;6.096;2023-12-22T05:59:05;100157.62;;;7.36;53.85
47742;BME280;33504;52.066;6.096;2023-12-22T06:01:31;100148.78;;;7.12;54.01
47742;BME280;33504;52.066;6.096;2023-12-22T06:03:58;100155.42;;;7.34;53.67
47742;BME280;33504;52.066;6.096;2023-12-22T06:06:26;100152.95;;;7.60;53.71
47742;BME280;33504;52.066;6.096;2023-12-22T06:08:53;100149.84;;;7.30;53.78
47742;BME280;33504;52.066;6.096;2023-12-22T06:11:20;100138.51;;;7.39;53.80
47742;BME280;33504;52.066;6.096;2023-12-22T06:13:47;100136.31;;;7.63;53.26
47742;BME280;33504;52.066;6.096;2023-12-22T06:16:14;100130.61;;;7.64;53.25
47742;BME280;33504;52.066;6.096;2023-12-22T06:18:42;100134.60;;;7.58;53.22
47742;BME280;33504;52.066;6.096;2023-12-22T06:21:09;100136.02;;;7.34;53.51
47742;BME280;33504;52.066;6.096;2023-12-22T06:23:36;100134.61;;;7.56;53.09
47742;BME280;33504;52.066;6.096;2023-12-22T06:26:08;100135.08;;;7.25;53.66
47742;BME280;33504;52.066;6.096;2023-12-22T06:28:35;100122.16;;;7.31;53.52
47742;BME280;33504;52.066;6.096;2023-12-22T06:31:02;100111.66;;;7.26;53.67
47742;BME280;33504;52.066;6.096;2023-12-22T06:33:29;100128.35;;;7.51;53.17
47742;BME280;33504;52.066;6.096;2023-12-22T06:35:56;100141.23;;;7.23;53.55
47742;BME280;33504;52.066;6.096;2023-12-22T06:38:23;100131.76;;;7.45;53.28
47742;BME280;33504;52.066;6.096;2023-12-22T06:40:50;100128.83;;;7.56;53.57
47742;BME280;33504;52.066;6.096;2023-12-22T06:43:17;100124.50;;;7.37;53.22
47742;BME280;33504;52.066;6.096;2023-12-22T06:45:44;100112.70;;;7.48;53.25
47742;BME280;33504;52.066;6.096;2023-12-22T06:48:12;100109.49;;;7.45;53.42
47742;BME280;33504;52.066;6.096;2023-12-22T06:50:39;100094.90;;;7.27;53.65
47742;BME280;33504;52.066;6.096;2023-12-22T06:53:06;100080.16;;;7.76;53.20
47742;BME280;33504;52.066;6.096;2023-12-22T06:55:33;100091.79;;;7.36;53.63
47742;BME280;33504;52.066;6.096;2023-12-22T06:58:00;100157.26;;;7.15;54.67
47742;BME280;33504;52.066;6.096;2023-12-22T07:00:27;100160.91;;;7.33;54.66
47742;BME280;33504;52.066;6.096;2023-12-22T07:02:54;100172.90;;;7.27;53.99
47742;BME280;33504;52.066;6.096;2023-12-22T07:05:37;100145.35;;;7.51;53.34
47742;BME280;33504;52.066;6.096;2023-12-22T07:08:05;100116.43;;;7.58;52.98
47742;BME280;33504;52.066;6.096;2023-12-22T07:10:32;100121.55;;;7.55;53.13
47742;BME280;33504;52.066;6.096;2023-12-22T07:13:00;100124.01;;;7.69;52.95
47742;BME280;33504;52.066;6.096;2023-12-22T07:15:27;100119.31;;;7.79;52.84
47742;BME280;33504;52.066;6.096;2023-12-22T07:17:54;100116.96;;;7.47;52.53
47742;BME280;33504;52.066;6.096;2023-12-22T07:20:21;100122.25;;;7.98;52.41
47742;BME280;33504;52.066;6.096;2023-12-22T07:22:48;100130.33;;;8.07;52.35
47742;BME280;33504;52.066;6.096;2023-12-22T07:25:15;100138.47;;;7.90;52.77
47742;BME280;33504;52.066;6.096;2023-12-22T07:27:42;100147.43;;;7.85;52.98
47742;BME280;33504;52.066;6.096;2023-12-22T07:30:10;100150.23;;;7.76;53.52
47742;BME280;33504;52.066;6.096;2023-12-22T07:32:37;100142.85;;;7.81;53.65
47742;BME280;33504;52.066;6.096;2023-12-22T07:35:05;100144.28;;;7.87;53.58
47742;BME280;33504;52.066;6.096;2023-12-22T07:37:34;100138.82;;;7.62;54.19
47742;BME280;33504;52.066;6.096;2023-12-22T07:40:02;100133.10;;;7.86;54.19
47742;BME280;33504;52.066;6.096;2023-12-22T07:42:29;100132.06;;;7.66;54.06
47742;BME280;33504;52.066;6.096;2023-12-22T07:44:57;100137.55;;;7.48;54.50
47742;BME280;33504;52.066;6.096;2023-12-22T07:47:24;100135.21;;;8.01;54.08
47742;BME280;33504;52.066;6.096;2023-12-22T07:49:50;100138.17;;;8.02;54.38
47742;BME280;33504;52.066;6.096;2023-12-22T07:52:17;100134.38;;;8.10;53.82
47742;BME280;33504;52.066;6.096;2023-12-22T07:54:44;100136.50;;;7.94;53.64
47742;BME280;33504;52.066;6.096;2023-12-22T07:57:11;100136.53;;;8.41;53.78
47742;BME280;33504;52.066;6.096;2023-12-22T07:59:38;100137.03;;;8.55;53.80
47742;BME280;33504;52.066;6.096;2023-12-22T08:02:05;100141.68;;;8.68;53.40
47742;BME280;33504;52.066;6.096;2023-12-22T08:04:31;100142.87;;;8.05;53.67
47742;BME280;33504;52.066;6.096;2023-12-22T08:06:58;100140.38;;;8.29;53.60
47742;BME280;33504;52.066;6.096;2023-12-22T08:09:25;100139.76;;;8.30;53.35
47742;BME280;33504;52.066;6.096;2023-12-22T08:11:52;100150.83;;;8.38;53.65
47742;BME280;33504;52.066;6.096;2023-12-22T08:14:20;100151.87;;;8.56;53.12
47742;BME280;33504;52.066;6.096;2023-12-22T08:16:47;100142.99;;;8.37;53.20
47742;BME280;33504;52.066;6.096;2023-12-22T08:19:14;100138.69;;;8.74;52.96
47742;BME280;33504;52.066;6.096;2023-12-22T08:21:42;100153.60;;;8.37;53.11
47742;BME280;33504;52.066;6.096;2023-12-22T08:24:10;100155.77;;;8.62;53.39
47742;BME280;33504;52.066;6.096;2023-12-22T08:26:37;100142.43;;;8.32;53.77
47742;BME280;33504;52.066;6.096;2023-12-22T08:29:04;100141.38;;;8.23;53.81
47742;BME280;33504;52.066;6.096;2023-12-22T08:31:31;100147.80;;;8.39;53.82
47742;BME280;33504;52.066;6.096;2023-12-22T08:33:58;100147.37;;;8.47;53.98
47742;BME280;33504;52.066;6.096;2023-12-22T08:36:25;100129.60;;;8.21;54.52
47742;BME280;33504;52.066;6.096;2023-12-22T08:38:52;100131.38;;;8.43;54.33
47742;BME280;33504;52.066;6.096;2023-12-22T08:41:19;100125.51;;;8.55;54.35
47742;BME280;33504;52.066;6.096;2023-12-22T08:43:46;100114.76;;;8.50;54.24
47742;BME280;33504;52.066;6.096;2023-12-22T08:46:13;100104.03;;;8.52;54.25
47742;BME280;33504;52.066;6.096;2023-12-22T08:48:40;100114.54;;;8.65;54.10
47742;BME280;33504;52.066;6.096;2023-12-22T08:51:07;100120.20;;;8.56;54.28
47742;BME280;33504;52.066;6.096;2023-12-22T08:53:34;100121.84;;;8.62;54.14
47742;BME280;33504;52.066;6.096;2023-12-22T08:56:01;100113.03;;;8.75;54.49
47742;BME280;33504;52.066;6.096;2023-12-22T08:58:28;100113.89;;;8.43;54.76
47742;BME280;33504;52.066;6.096;2023-12-22T09:00:55;100114.36;;;8.66;54.45
47742;BME280;33504;52.066;6.096;2023-12-22T09:03:22;100102.37;;;8.51;54.74
47742;BME280;33504;52.066;6.096;2023-12-22T09:05:49;100102.96;;;8.80;54.52
47742;BME280;33504;52.066;6.096;2023-12-22T09:08:16;100096.66;;;9.08;54.18
47742;BME280;33504;52.066;6.096;2023-12-22T09:10:43;100087.91;;;9.10;54.09
47742;BME280;33504;52.066;6.096;2023-12-22T09:13:10;100084.23;;;9.02;54.41
47742;BME280;33504;52.066;6.096;2023-12-22T09:15:37;100086.58;;;8.80;54.43
47742;BME280;33504;52.066;6.096;2023-12-22T09:18:04;100084.19;;;9.23;53.99
47742;BME280;33504;52.066;6.096;2023-12-22T09:20:31;100084.53;;;9.13;54.17
47742;BME280;33504;52.066;6.096;2023-12-22T09:22:59;100082.07;;;9.05;54.53
47742;BME280;33504;52.066;6.096;2023-12-22T09:25:26;100087.34;;;8.56;55.06
47742;BME280;33504;52.066;6.096;2023-12-22T09:27:53;100097.16;;;8.42;55.52
47742;BME280;33504;52.066;6.096;2023-12-22T09:30:20;100094.36;;;8.50;55.41
47742;BME280;33504;52.066;6.096;2023-12-22T09:32:47;100094.16;;;8.72;55.86
47742;BME280;33504;52.066;6.096;2023-12-22T09:35:15;100095.30;;;8.62;55.51
47742;BME280;33504;52.066;6.096;2023-12-22T09:37:42;100093.81;;;8.89;55.72
47742;BME280;33504;52.066;6.096;2023-12-22T09:40:09;100086.38;;;8.86;56.07
47742;BME280;33504;52.066;6.096;2023-12-22T09:42:38;100090.07;;;8.77;56.41
47742;BME280;33504;52.066;6.096;2023-12-22T09:45:08;100094.41;;;8.52;57.20
47742;BME280;33504;52.066;6.096;2023-12-22T09:47:39;100089.17;;;8.68;56.91
47742;BME280;33504;52.066;6.096;2023-12-22T09:50:08;100092.60;;;8.60;56.72
47742;BME280;33504;52.066;6.096;2023-12-22T09:52:36;100082.48;;;8.55;57.27
47742;BME280;33504;52.066;6.096;2023-12-22T09:55:04;100083.77;;;8.99;56.58
47742;BME280;33504;52.066;6.096;2023-12-22T09:57:32;100075.96;;;9.12;56.52
47742;BME280;33504;52.066;6.096;2023-12-22T10:00:01;100078.85;;;8.84;56.55
47742;BME280;33504;52.066;6.096;2023-12-22T10:02:29;100080.67;;;8.44;57.03
47742;BME280;33504;52.066;6.096;2023-12-22T10:04:58;100073.35;;;9.08;56.62
47742;BME280;33504;52.066;6.096;2023-12-22T10:07:25;100076.22;;;9.07;56.65
47742;BME280;33504;52.066;6.096;2023-12-22T10:09:54;100087.16;;;9.27;56.90
47742;BME280;33504;52.066;6.096;2023-12-22T10:12:23;100086.19;;;8.91;56.61
47742;BME280;33504;52.066;6.096;2023-12-22T10:15:01;100091.13;;;8.69;56.95
47742;BME280;33504;52.066;6.096;2023-12-22T10:17:29;100090.66;;;8.87;56.36
47742;BME280;33504;52.066;6.096;2023-12-22T10:19:57;100095.81;;;9.18;55.97
47742;BME280;33504;52.066;6.096;2023-12-22T10:22:24;100097.84;;;9.31;55.79
47742;BME280;33504;52.066;6.096;2023-12-22T10:24:50;100088.69;;;9.31;55.96
47742;BME280;33504;52.066;6.096;2023-12-22T10:27:19;100092.76;;;9.27;55.57
47742;BME280;33504;52.066;6.096;2023-12-22T10:29:48;100106.33;;;9.31;56.07
47742;BME280;33504;52.066;6.096;2023-12-22T10:32:15;100098.96;;;9.48;55.42
47742;BME280;33504;52.066;6.096;2023-12-22T10:34:43;100085.26;;;9.40;55.37
47742;BME280;33504;52.066;6.096;2023-12-22T10:37:10;100095.51;;;9.02;55.88
47742;BME280;33504;52.066;6.096;2023-12-22T10:39:38;100094.58;;;8.87;55.35
47742;BME280;33504;52.066;6.096;2023-12-22T10:42:06;100091.69;;;9.10;55.06
47742;BME280;33504;52.066;6.096;2023-12-22T10:44:33;100076.68;;;9.20;55.04
47742;BME280;33504;52.066;6.096;2023-12-22T10:47:01;100074.29;;;8.90;55.57
47742;BME280;33504;52.066;6.096;2023-12-22T10:49:28;100092.98;;;9.04;55.96
47742;BME280;33504;52.066;6.096;2023-12-22T10:51:57;100081.37;;;9.36;55.54
47742;BME280;33504;52.066;6.096;2023-12-22T10:54:24;100083.54;;;9.57;55.64
47742;BME280;33504;52.066;6.096;2023-12-22T10:56:51;100084.47;;;10.05;55.33
47742;BME280;33504;52.066;6.096;2023-12-22T10:59:18;100088.02;;;9.43;55.58
47742;BME280;33504;52.066;6.096;2023-12-22T11:01:51;100082.54;;;9.43;55.49
47742;BME280;33504;52.066;6.096;2023-12-22T11:04:20;100068.10;;;9.46;55.99
47742;BME280;33504;52.066;6.096;2023-12-22T11:06:49;100070.15;;;9.31;55.94
47742;BME280;33504;52.066;6.096;2023-12-22T11:09:21;100069.87;;;9.45;56.01
47742;BME280;33504;52.066;6.096;2023-12-22T11:11:51;100064.77;;;9.74;55.33
47742;BME280;33504;52.066;6.096;2023-12-22T11:14:19;100070.67;;;9.80;55.46
47742;BME280;33504;52.066;6.096;2023-12-22T11:16:47;100061.41;;;9.88;55.35
47742;BME280;33504;52.066;6.096;2023-12-22T11:19:16;100052.00;;;10.32;54.78
47742;BME280;33504;52.066;6.096;2023-12-22T11:21:45;100060.07;;;10.23;54.28
47742;BME280;33504;52.066;6.096;2023-12-22T11:24:13;100072.05;;;9.89;54.97
47742;BME280;33504;52.066;6.096;2023-12-22T11:26:41;100064.20;;;9.81;55.30
47742;BME280;33504;52.066;6.096;2023-12-22T11:29:10;100062.18;;;9.11;56.35
47742;BME280;33504;52.066;6.096;2023-12-22T11:31:37;100071.16;;;8.87;57.19
47742;BME280;33504;52.066;6.096;2023-12-22T11:34:07;100073.64;;;9.17;56.76
47742;BME280;33504;52.066;6.096;2023-12-22T11:36:35;100067.54;;;9.18;57.17
47742;BME280;33504;52.066;6.096;2023-12-22T11:39:05;100076.14;;;9.27;56.68
47742;BME280;33504;52.066;6.096;2023-12-22T11:41:34;100075.44;;;9.61;56.47
47742;BME280;33504;52.066;6.096;2023-12-22T11:44:04;100076.41;;;9.70;55.96
47742;BME280;33504;52.066;6.096;2023-12-22T11:46:32;100067.49;;;10.09;55.36
47742;BME280;33504;52.066;6.096;2023-12-22T11:48:59;100062.03;;;10.28;55.03
47742;BME280;33504;52.066;6.096;2023-12-22T11:51:31;100063.08;;;9.84;55.61
47742;BME280;33504;52.066;6.096;2023-12-22T11:53:59;100062.42;;;9.85;55.83
47742;BME280;33504;52.066;6.096;2023-12-22T11:56:26;100064.71;;;9.72;55.83
47742;BME280;33504;52.066;6.096;2023-12-22T11:58:53;100054.68;;;10.03;54.79
47742;BME280;33504;52.066;6.096;2023-12-22T12:01:21;100057.53;;;10.38;54.46
47742;BME280;33504;52.066;6.096;2023-12-22T12:03:50;100048.69;;;10.34;54.48
47742;BME280;33504;52.066;6.096;2023-12-22T12:06:31;100045.61;;;10.27;54.76
47742;BME280;33504;52.066;6.096;2023-12-22T12:09:00;100036.52;;;10.46;54.42
47742;BME280;33504;52.066;6.096;2023-12-22T12:12:08;100039.60;;;10.75;54.22
47742;BME280;33504;52.066;6.096;2023-12-22T12:14:41;100039.14;;;10.71;54.19
47742;BME280;33504;52.066;6.096;2023-12-22T12:17:10;100015.35;;;10.49;54.17
47742;BME280;33504;52.066;6.096;2023-12-22T12:19:37;100015.44;;;10.20;53.96
47742;BME280;33504;52.066;6.096;2023-12-22T12:22:04;100012.96;;;10.96;53.39
47742;BME280;33504;52.066;6.096;2023-12-22T12:24:32;100017.43;;;10.25;53.69
47742;BME280;33504;52.066;6.096;2023-12-22T12:26:59;100011.79;;;10.22;53.77
47742;BME280;33504;52.066;6.096;2023-12-22T12:29:26;100008.54;;;10.61;53.73
47742;BME280;33504;52.066;6.096;2023-12-22T12:31:53;100014.44;;;10.48;54.08
47742;BME280;33504;52.066;6.096;2023-12-22T12:34:29;100016.30;;;10.40;54.40
47742;BME280;33504;52.066;6.096;2023-12-22T12:36:57;99993.06;;;10.07;54.66
47742;BME280;33504;52.066;6.096;2023-12-22T12:39:25;99996.16;;;10.09;54.54
47742;BME280;33504;52.066;6.096;2023-12-22T12:41:59;99997.84;;;9.35;55.27
47742;BME280;33504;52.066;6.096;2023-12-22T12:44:27;99995.66;;;10.05;55.00
47742;BME280;33504;52.066;6.096;2023-12-22T12:46:54;99986.09;;;10.20;54.64
47742;BME280;33504;52.066;6.096;2023-12-22T12:49:21;99990.36;;;10.19;54.71
47742;BME280;33504;52.066;6.096;2023-12-22T12:51:49;99987.13;;;10.13;54.96
47742;BME280;33504;52.066;6.096;2023-12-22T12:54:16;99988.67;;;10.03;55.13
47742;BME280;33504;52.066;6.096;2023-12-22T12:56:45;99989.78;;;10.21;54.59
47742;BME280;33504;52.066;6.096;2023-12-22T12:59:14;99994.49;;;9.85;55.27
47742;BME280;33504;52.066;6.096;2023-12-22T13:01:42;99994.23;;;9.80;55.29